sensor_id;sensor_type;location;lat;lon;timestamp;P1;durP1;ratioP1;P2;durP2;ratioP2
36241;SDS011;22283;42.748;12.732;2024-02-16T00:01:19;6.75;;;3.72;;
36241;SDS011;22283;42.748;12.732;2024-02-16T00:06:20;5.60;;;3.10;;
36241;SDS011;22283;42.748;12.732;2024-02-16T00:11:20;6.90;;;3.03;;
36241;SDS011;22283;42.748;12.732;2024-02-16T00:16:21;5.77;;;3.00;;
36241;SDS011;22283;42.748;12.732;2024-02-16T00:21:22;8.23;;;3.33;;
36241;SDS011;22283;42.748;12.732;2024-02-16T00:26:22;8.60;;;2.97;;
36241;SDS011;22283;42.748;12.732;2024-02-16T00:31:23;5.23;;;3.23;;
36241;SDS011;22283;42.748;12.732;2024-02-16T00:36:25;7.53;;;3.43;;
36241;SDS011;22283;42.748;12.732;2024-02-16T00:41:26;4.82;;;2.60;;
36241;SDS011;22283;42.748;12.732;2024-02-16T00:46:27;6.27;;;2.67;;
36241;SDS011;22283;42.748;12.732;2024-02-16T00:51:27;7.77;;;3.63;;
36241;SDS011;22283;42.748;12.732;2024-02-16T00:56:30;8.63;;;4.10;;
36241;SDS011;22283;42.748;12.732;2024-02-16T01:01:31;7.47;;;3.15;;
36241;SDS011;22283;42.748;12.732;2024-02-16T01:06:31;10.83;;;3.10;;
36241;SDS011;22283;42.748;12.732;2024-02-16T01:11:31;5.13;;;2.63;;
36241;SDS011;22283;42.748;12.732;2024-02-16T01:16:32;5.93;;;3.37;;
36241;SDS011;22283;42.748;12.732;2024-02-16T01:21:33;5.60;;;2.83;;
36241;SDS011;22283;42.748;12.732;2024-02-16T01:26:33;5.47;;;2.40;;
36241;SDS011;22283;42.748;12.732;2024-02-16T01:31:34;6.17;;;3.07;;
36241;SDS011;22283;42.748;12.732;2024-02-16T01:36:36;6.10;;;3.20;;
36241;SDS011;22283;42.748;12.732;2024-02-16T01:41:40;5.00;;;2.60;;
36241;SDS011;22283;42.748;12.732;2024-02-16T01:46:40;5.32;;;2.90;;
36241;SDS011;22283;42.748;12.732;2024-02-16T01:51:41;5.60;;;2.77;;
36241;SDS011;22283;42.748;12.732;2024-02-16T01:56:42;5.25;;;2.60;;
36241;SDS011;22283;42.748;12.732;2024-02-16T02:01:44;4.85;;;2.83;;
36241;SDS011;22283;42.748;12.732;2024-02-16T02:06:44;5.40;;;2.60;;
36241;SDS011;22283;42.748;12.732;2024-02-16T02:11:45;5.60;;;2.67;;
36241;SDS011;22283;42.748;12.732;2024-02-16T02:16:45;6.23;;;3.23;;
36241;SDS011;22283;42.748;12.732;2024-02-16T02:21:46;5.03;;;2.50;;
36241;SDS011;22283;42.748;12.732;2024-02-16T02:26:46;6.03;;;2.67;;
36241;SDS011;22283;42.748;12.732;2024-02-16T02:31:47;6.50;;;2.63;;
36241;SDS011;22283;42.748;12.732;2024-02-16T02:36:47;5.43;;;2.77;;
36241;SDS011;22283;42.748;12.732;2024-02-16T02:41:49;4.22;;;2.13;;
36241;SDS011;22283;42.748;12.732;2024-02-16T02:46:49;5.20;;;2.40;;
36241;SDS011;22283;42.748;12.732;2024-02-16T02:51:50;6.50;;;2.47;;
36241;SDS011;22283;42.748;12.732;2024-02-16T02:56:50;4.03;;;2.40;;
36241;SDS011;22283;42.748;12.732;2024-02-16T03:01:51;13.10;;;3.50;;
36241;SDS011;22283;42.748;12.732;2024-02-16T03:06:51;6.80;;;2.80;;
36241;SDS011;22283;42.748;12.732;2024-02-16T03:11:52;7.35;;;2.60;;
36241;SDS011;22283;42.748;12.732;2024-02-16T03:16:53;6.57;;;2.37;;
36241;SDS011;22283;42.748;12.732;2024-02-16T03:21:53;7.17;;;2.60;;
36241;SDS011;22283;42.748;12.732;2024-02-16T03:26:54;5.07;;;2.37;;
36241;SDS011;22283;42.748;12.732;2024-02-16T03:31:54;5.43;;;2.40;;
36241;SDS011;22283;42.748;12.732;2024-02-16T03:36:55;5.13;;;2.77;;
36241;SDS011;22283;42.748;12.732;2024-02-16T03:41:55;6.33;;;2.93;;
36241;SDS011;22283;42.748;12.732;2024-02-16T03:46:56;4.87;;;2.07;;
36241;SDS011;22283;42.748;12.732;2024-02-16T03:51:56;4.67;;;2.37;;
36241;SDS011;22283;42.748;12.732;2024-02-16T03:56:57;7.30;;;3.00;;
36241;SDS011;22283;42.748;12.732;2024-02-16T04:01:58;5.27;;;3.00;;
36241;SDS011;22283;42.748;12.732;2024-02-16T04:06:58;4.87;;;2.73;;
36241;SDS011;22283;42.748;12.732;2024-02-16T04:11:59;4.77;;;2.60;;
36241;SDS011;22283;42.748;12.732;2024-02-16T04:16:59;7.70;;;2.77;;
36241;SDS011;22283;42.748;12.732;2024-02-16T04:22:00;8.07;;;2.73;;
36241;SDS011;22283;42.748;12.732;2024-02-16T04:27:01;5.70;;;2.80;;
36241;SDS011;22283;42.748;12.732;2024-02-16T04:32:01;9.27;;;2.73;;
36241;SDS011;22283;42.748;12.732;2024-02-16T04:37:02;5.60;;;2.63;;
36241;SDS011;22283;42.748;12.732;2024-02-16T04:42:02;6.93;;;2.60;;
36241;SDS011;22283;42.748;12.732;2024-02-16T04:47:04;4.57;;;2.35;;
36241;SDS011;22283;42.748;12.732;2024-02-16T04:52:05;6.13;;;2.53;;
36241;SDS011;22283;42.748;12.732;2024-02-16T04:57:05;12.73;;;4.43;;
36241;SDS011;22283;42.748;12.732;2024-02-16T05:02:06;6.00;;;3.03;;
36241;SDS011;22283;42.748;12.732;2024-02-16T05:07:07;5.90;;;2.80;;
36241;SDS011;22283;42.748;12.732;2024-02-16T05:12:07;7.87;;;3.33;;
36241;SDS011;22283;42.748;12.732;2024-02-16T05:17:08;8.10;;;3.55;;
36241;SDS011;22283;42.748;12.732;2024-02-16T05:22:09;7.70;;;3.20;;
36241;SDS011;22283;42.748;12.732;2024-02-16T05:27:10;7.47;;;2.80;;
36241;SDS011;22283;42.748;12.732;2024-02-16T05:32:10;9.57;;;3.03;;
36241;SDS011;22283;42.748;12.732;2024-02-16T05:37:12;6.18;;;2.53;;
36241;SDS011;22283;42.748;12.732;2024-02-16T05:42:15;9.30;;;3.38;;
36241;SDS011;22283;42.748;12.732;2024-02-16T05:47:16;6.83;;;3.30;;
36241;SDS011;22283;42.748;12.732;2024-02-16T05:52:16;8.70;;;2.67;;
36241;SDS011;22283;42.748;12.732;2024-02-16T05:57:17;7.87;;;2.80;;
36241;SDS011;22283;42.748;12.732;2024-02-16T06:02:18;9.23;;;4.20;;
36241;SDS011;22283;42.748;12.732;2024-02-16T06:07:19;9.27;;;4.43;;
36241;SDS011;22283;42.748;12.732;2024-02-16T06:12:19;27.00;;;4.83;;
36241;SDS011;22283;42.748;12.732;2024-02-16T06:17:20;9.97;;;4.27;;
36241;SDS011;22283;42.748;12.732;2024-02-16T06:22:21;21.30;;;5.93;;
36241;SDS011;22283;42.748;12.732;2024-02-16T06:27:22;21.93;;;6.17;;
36241;SDS011;22283;42.748;12.732;2024-02-16T06:32:24;15.77;;;5.28;;
36241;SDS011;22283;42.748;12.732;2024-02-16T06:37:24;11.93;;;4.27;;
36241;SDS011;22283;42.748;12.732;2024-02-16T06:42:25;27.23;;;8.07;;
36241;SDS011;22283;42.748;12.732;2024-02-16T06:47:25;30.27;;;7.47;;
36241;SDS011;22283;42.748;12.732;2024-02-16T06:52:26;18.73;;;5.10;;
36241;SDS011;22283;42.748;12.732;2024-02-16T06:57:26;12.10;;;3.80;;
36241;SDS011;22283;42.748;12.732;2024-02-16T07:02:27;10.70;;;4.40;;
36241;SDS011;22283;42.748;12.732;2024-02-16T07:07:27;30.37;;;5.60;;
36241;SDS011;22283;42.748;12.732;2024-02-16T07:12:28;21.60;;;9.33;;
36241;SDS011;22283;42.748;12.732;2024-02-16T07:17:28;19.43;;;6.60;;
36241;SDS011;22283;42.748;12.732;2024-02-16T07:22:30;18.13;;;8.23;;
36241;SDS011;22283;42.748;12.732;2024-02-16T07:27:31;24.63;;;6.47;;
36241;SDS011;22283;42.748;12.732;2024-02-16T07:32:32;19.10;;;7.27;;
36241;SDS011;22283;42.748;12.732;2024-02-16T07:37:32;18.40;;;8.07;;
36241;SDS011;22283;42.748;12.732;2024-02-16T07:42:33;18.43;;;7.67;;
36241;SDS011;22283;42.748;12.732;2024-02-16T07:47:33;12.17;;;6.63;;
36241;SDS011;22283;42.748;12.732;2024-02-16T07:52:34;13.57;;;6.53;;
36241;SDS011;22283;42.748;12.732;2024-02-16T07:57:34;17.30;;;8.73;;
36241;SDS011;22283;42.748;12.732;2024-02-16T08:02:35;21.50;;;10.43;;
36241;SDS011;22283;42.748;12.732;2024-02-16T08:07:35;17.87;;;9.47;;
36241;SDS011;22283;42.748;12.732;2024-02-16T08:12:36;28.60;;;10.67;;
36241;SDS011;22283;42.748;12.732;2024-02-16T08:17:36;17.50;;;9.63;;
36241;SDS011;22283;42.748;12.732;2024-02-16T08:22:37;24.10;;;10.23;;
36241;SDS011;22283;42.748;12.732;2024-02-16T08:27:38;22.73;;;11.53;;
36241;SDS011;22283;42.748;12.732;2024-02-16T08:32:38;22.13;;;10.43;;
36241;SDS011;22283;42.748;12.732;2024-02-16T08:37:39;20.20;;;10.37;;
36241;SDS011;22283;42.748;12.732;2024-02-16T08:42:43;18.40;;;10.57;;
36241;SDS011;22283;42.748;12.732;2024-02-16T08:47:44;21.83;;;12.80;;
36241;SDS011;22283;42.748;12.732;2024-02-16T08:52:44;17.38;;;11.70;;
36241;SDS011;22283;42.748;12.732;2024-02-16T08:57:45;21.63;;;13.33;;
36241;SDS011;22283;42.748;12.732;2024-02-16T09:02:47;16.30;;;10.97;;
36241;SDS011;22283;42.748;12.732;2024-02-16T09:07:48;20.25;;;11.80;;
36241;SDS011;22283;42.748;12.732;2024-02-16T09:12:48;22.47;;;11.80;;
36241;SDS011;22283;42.748;12.732;2024-02-16T09:17:49;16.80;;;11.90;;
36241;SDS011;22283;42.748;12.732;2024-02-16T09:22:49;16.90;;;11.33;;
36241;SDS011;22283;42.748;12.732;2024-02-16T09:27:50;20.47;;;10.57;;
36241;SDS011;22283;42.748;12.732;2024-02-16T09:32:51;17.20;;;10.13;;
36241;SDS011;22283;42.748;12.732;2024-02-16T09:37:52;16.50;;;7.80;;
36241;SDS011;22283;42.748;12.732;2024-02-16T09:42:52;16.77;;;9.87;;
36241;SDS011;22283;42.748;12.732;2024-02-16T09:47:53;14.37;;;9.13;;
36241;SDS011;22283;42.748;12.732;2024-02-16T09:52:55;14.77;;;8.35;;
36241;SDS011;22283;42.748;12.732;2024-02-16T09:58:00;21.33;;;10.40;;
36241;SDS011;22283;42.748;12.732;2024-02-16T10:03:01;18.38;;;12.30;;
36241;SDS011;22283;42.748;12.732;2024-02-16T10:08:10;22.23;;;11.83;;
36241;SDS011;22283;42.748;12.732;2024-02-16T10:13:12;24.60;;;13.68;;
36241;SDS011;22283;42.748;12.732;2024-02-16T10:18:13;16.80;;;11.93;;
36241;SDS011;22283;42.748;12.732;2024-02-16T10:23:13;19.60;;;13.30;;
36241;SDS011;22283;42.748;12.732;2024-02-16T10:28:15;22.42;;;12.95;;
36241;SDS011;22283;42.748;12.732;2024-02-16T10:33:17;17.42;;;11.23;;
36241;SDS011;22283;42.748;12.732;2024-02-16T10:38:17;21.00;;;11.40;;
36241;SDS011;22283;42.748;12.732;2024-02-16T10:43:19;18.95;;;10.27;;
36241;SDS011;22283;42.748;12.732;2024-02-16T10:48:21;22.17;;;7.95;;
36241;SDS011;22283;42.748;12.732;2024-02-16T10:53:26;18.87;;;10.50;;
36241;SDS011;22283;42.748;12.732;2024-02-16T10:58:29;11.77;;;7.22;;
36241;SDS011;22283;42.748;12.732;2024-02-16T11:03:31;12.67;;;7.97;;
36241;SDS011;22283;42.748;12.732;2024-02-16T11:08:32;16.95;;;9.93;;
36241;SDS011;22283;42.748;12.732;2024-02-16T11:13:38;17.48;;;10.43;;
36241;SDS011;22283;42.748;12.732;2024-02-16T11:18:42;21.70;;;12.35;;
36241;SDS011;22283;42.748;12.732;2024-02-16T11:23:46;25.58;;;12.02;;
36241;SDS011;22283;42.748;12.732;2024-02-16T11:28:48;27.65;;;15.43;;
36241;SDS011;22283;42.748;12.732;2024-02-16T11:33:50;26.05;;;13.93;;
36241;SDS011;22283;42.748;12.732;2024-02-16T11:38:51;23.97;;;13.27;;
36241;SDS011;22283;42.748;12.732;2024-02-16T11:43:58;19.23;;;10.67;;
36241;SDS011;22283;42.748;12.732;2024-02-16T11:49:05;16.58;;;8.32;;
36241;SDS011;22283;42.748;12.732;2024-02-16T11:54:06;10.88;;;6.38;;
36241;SDS011;22283;42.748;12.732;2024-02-16T11:59:07;14.32;;;6.65;;
36241;SDS011;22283;42.748;12.732;2024-02-16T12:04:08;11.17;;;6.03;;
36241;SDS011;22283;42.748;12.732;2024-02-16T12:09:20;12.80;;;6.70;;
36241;SDS011;22283;42.748;12.732;2024-02-16T12:14:21;19.05;;;7.80;;
36241;SDS011;22283;42.748;12.732;2024-02-16T12:19:23;14.00;;;7.22;;
36241;SDS011;22283;42.748;12.732;2024-02-16T12:24:24;14.43;;;7.93;;
36241;SDS011;22283;42.748;12.732;2024-02-16T12:29:25;16.73;;;6.18;;
36241;SDS011;22283;42.748;12.732;2024-02-16T12:34:25;10.37;;;5.37;;
36241;SDS011;22283;42.748;12.732;2024-02-16T12:39:26;11.93;;;5.97;;
36241;SDS011;22283;42.748;12.732;2024-02-16T12:44:26;20.73;;;11.37;;
36241;SDS011;22283;42.748;12.732;2024-02-16T12:49:27;14.40;;;8.23;;
36241;SDS011;22283;42.748;12.732;2024-02-16T12:54:27;20.17;;;8.60;;
36241;SDS011;22283;42.748;12.732;2024-02-16T12:59:28;15.65;;;6.60;;
36241;SDS011;22283;42.748;12.732;2024-02-16T13:04:29;15.90;;;6.33;;
36241;SDS011;22283;42.748;12.732;2024-02-16T13:09:32;23.90;;;8.57;;
36241;SDS011;22283;42.748;12.732;2024-02-16T13:14:33;14.00;;;6.47;;
36241;SDS011;22283;42.748;12.732;2024-02-16T13:19:33;10.43;;;6.53;;
36241;SDS011;22283;42.748;12.732;2024-02-16T13:24:33;12.40;;;6.20;;
36241;SDS011;22283;42.748;12.732;2024-02-16T13:29:35;11.00;;;6.82;;
36241;SDS011;22283;42.748;12.732;2024-02-16T13:34:35;21.77;;;8.27;;
36241;SDS011;22283;42.748;12.732;2024-02-16T13:39:36;16.30;;;8.30;;
36241;SDS011;22283;42.748;12.732;2024-02-16T13:44:36;18.27;;;8.87;;
36241;SDS011;22283;42.748;12.732;2024-02-16T13:49:37;13.77;;;7.47;;
36241;SDS011;22283;42.748;12.732;2024-02-16T13:54:38;14.17;;;8.37;;
36241;SDS011;22283;42.748;12.732;2024-02-16T13:59:39;13.87;;;8.23;;
36241;SDS011;22283;42.748;12.732;2024-02-16T14:04:39;10.50;;;6.57;;
36241;SDS011;22283;42.748;12.732;2024-02-16T14:09:40;13.73;;;6.53;;
36241;SDS011;22283;42.748;12.732;2024-02-16T14:14:40;11.63;;;6.50;;
36241;SDS011;22283;42.748;12.732;2024-02-16T14:19:41;11.57;;;7.00;;
36241;SDS011;22283;42.748;12.732;2024-02-16T14:24:41;11.13;;;6.07;;
36241;SDS011;22283;42.748;12.732;2024-02-16T14:29:42;13.70;;;6.07;;
36241;SDS011;22283;42.748;12.732;2024-02-16T14:34:42;19.37;;;8.23;;
36241;SDS011;22283;42.748;12.732;2024-02-16T14:39:45;18.98;;;9.68;;
36241;SDS011;22283;42.748;12.732;2024-02-16T14:44:46;32.55;;;17.33;;
36241;SDS011;22283;42.748;12.732;2024-02-16T14:49:47;25.73;;;14.63;;
36241;SDS011;22283;42.748;12.732;2024-02-16T14:54:48;25.83;;;15.80;;
36241;SDS011;22283;42.748;12.732;2024-02-16T14:59:50;23.20;;;13.07;;
36241;SDS011;22283;42.748;12.732;2024-02-16T15:04:55;20.50;;;11.68;;
36241;SDS011;22283;42.748;12.732;2024-02-16T15:09:56;24.90;;;15.07;;
36241;SDS011;22283;42.748;12.732;2024-02-16T15:14:57;26.00;;;16.30;;
36241;SDS011;22283;42.748;12.732;2024-02-16T15:19:59;33.15;;;20.58;;
36241;SDS011;22283;42.748;12.732;2024-02-16T15:25:03;27.13;;;17.52;;
36241;SDS011;22283;42.748;12.732;2024-02-16T15:30:04;30.70;;;17.55;;
36241;SDS011;22283;42.748;12.732;2024-02-16T15:35:05;28.05;;;15.98;;
36241;SDS011;22283;42.748;12.732;2024-02-16T15:40:08;24.80;;;15.57;;
36241;SDS011;22283;42.748;12.732;2024-02-16T15:45:09;24.40;;;16.30;;
36241;SDS011;22283;42.748;12.732;2024-02-16T15:50:10;33.87;;;14.37;;
36241;SDS011;22283;42.748;12.732;2024-02-16T15:55:10;28.13;;;13.53;;
36241;SDS011;22283;42.748;12.732;2024-02-16T16:00:11;21.52;;;12.95;;
36241;SDS011;22283;42.748;12.732;2024-02-16T16:05:12;23.00;;;12.27;;
36241;SDS011;22283;42.748;12.732;2024-02-16T16:10:14;23.50;;;12.07;;
36241;SDS011;22283;42.748;12.732;2024-02-16T16:15:16;38.55;;;11.70;;
36241;SDS011;22283;42.748;12.732;2024-02-16T16:20:17;24.13;;;9.97;;
36241;SDS011;22283;42.748;12.732;2024-02-16T16:25:17;19.50;;;11.30;;
36241;SDS011;22283;42.748;12.732;2024-02-16T16:30:18;26.80;;;15.87;;
36241;SDS011;22283;42.748;12.732;2024-02-16T16:35:19;31.70;;;15.70;;
36241;SDS011;22283;42.748;12.732;2024-02-16T16:40:19;40.30;;;16.97;;
36241;SDS011;22283;42.748;12.732;2024-02-16T16:45:20;29.43;;;17.13;;
36241;SDS011;22283;42.748;12.732;2024-02-16T16:50:21;25.42;;;14.23;;
36241;SDS011;22283;42.748;12.732;2024-02-16T16:55:24;25.27;;;12.73;;
36241;SDS011;22283;42.748;12.732;2024-02-16T17:00:25;28.75;;;13.02;;
36241;SDS011;22283;42.748;12.732;2024-02-16T17:05:26;23.17;;;13.03;;
36241;SDS011;22283;42.748;12.732;2024-02-16T17:10:26;23.07;;;13.43;;
36241;SDS011;22283;42.748;12.732;2024-02-16T17:15:28;20.20;;;12.25;;
36241;SDS011;22283;42.748;12.732;2024-02-16T17:20:32;26.67;;;13.68;;
36241;SDS011;22283;42.748;12.732;2024-02-16T17:25:34;31.92;;;15.20;;
36241;SDS011;22283;42.748;12.732;2024-02-16T17:30:35;30.17;;;16.03;;
36241;SDS011;22283;42.748;12.732;2024-02-16T17:35:35;23.83;;;14.97;;
36241;SDS011;22283;42.748;12.732;2024-02-16T17:40:38;30.48;;;16.80;;
36241;SDS011;22283;42.748;12.732;2024-02-16T17:45:38;24.67;;;15.53;;
36241;SDS011;22283;42.748;12.732;2024-02-16T17:50:39;30.37;;;18.00;;
36241;SDS011;22283;42.748;12.732;2024-02-16T17:55:40;33.40;;;18.27;;
36241;SDS011;22283;42.748;12.732;2024-02-16T18:00:40;33.40;;;17.43;;
36241;SDS011;22283;42.748;12.732;2024-02-16T18:05:41;28.67;;;18.60;;
36241;SDS011;22283;42.748;12.732;2024-02-16T18:10:41;26.87;;;14.23;;
36241;SDS011;22283;42.748;12.732;2024-02-16T18:15:42;31.17;;;16.30;;
36241;SDS011;22283;42.748;12.732;2024-02-16T18:20:43;29.60;;;17.43;;
36241;SDS011;22283;42.748;12.732;2024-02-16T18:30:45;26.35;;;16.80;;
36241;SDS011;22283;42.748;12.732;2024-02-16T18:35:45;28.03;;;15.10;;
36241;SDS011;22283;42.748;12.732;2024-02-16T18:40:46;22.77;;;12.23;;
36241;SDS011;22283;42.748;12.732;2024-02-16T18:45:46;24.53;;;11.70;;
36241;SDS011;22283;42.748;12.732;2024-02-16T18:50:47;44.80;;;26.23;;
36241;SDS011;22283;42.748;12.732;2024-02-16T18:55:50;32.40;;;22.63;;
36241;SDS011;22283;42.748;12.732;2024-02-16T19:00:50;20.20;;;13.35;;
36241;SDS011;22283;42.748;12.732;2024-02-16T19:05:51;31.57;;;14.80;;
36241;SDS011;22283;42.748;12.732;2024-02-16T19:10:52;21.15;;;13.10;;
36241;SDS011;22283;42.748;12.732;2024-02-16T19:15:54;27.65;;;14.20;;
36241;SDS011;22283;42.748;12.732;2024-02-16T19:20:56;22.85;;;13.05;;
36241;SDS011;22283;42.748;12.732;2024-02-16T19:25:57;28.63;;;14.85;;
36241;SDS011;22283;42.748;12.732;2024-02-16T19:30:59;36.83;;;15.43;;
36241;SDS011;22283;42.748;12.732;2024-02-16T19:35:59;24.00;;;14.90;;
36241;SDS011;22283;42.748;12.732;2024-02-16T19:41:01;26.33;;;14.45;;
36241;SDS011;22283;42.748;12.732;2024-02-16T19:46:02;21.33;;;12.23;;
36241;SDS011;22283;42.748;12.732;2024-02-16T19:51:03;24.10;;;14.20;;
36241;SDS011;22283;42.748;12.732;2024-02-16T19:56:04;30.83;;;13.20;;
36241;SDS011;22283;42.748;12.732;2024-02-16T20:01:04;22.60;;;13.27;;
36241;SDS011;22283;42.748;12.732;2024-02-16T20:06:05;17.50;;;10.50;;
36241;SDS011;22283;42.748;12.732;2024-02-16T20:11:06;17.07;;;10.60;;
36241;SDS011;22283;42.748;12.732;2024-02-16T20:16:07;18.27;;;9.70;;
36241;SDS011;22283;42.748;12.732;2024-02-16T20:21:10;22.90;;;14.32;;
36241;SDS011;22283;42.748;12.732;2024-02-16T20:26:12;24.50;;;11.85;;
36241;SDS011;22283;42.748;12.732;2024-02-16T20:31:13;17.20;;;9.50;;
36241;SDS011;22283;42.748;12.732;2024-02-16T20:36:13;16.47;;;8.77;;
36241;SDS011;22283;42.748;12.732;2024-02-16T20:41:18;15.30;;;8.52;;
36241;SDS011;22283;42.748;12.732;2024-02-16T20:46:19;19.90;;;9.03;;
36241;SDS011;22283;42.748;12.732;2024-02-16T20:51:19;20.47;;;9.17;;
36241;SDS011;22283;42.748;12.732;2024-02-16T20:56:19;18.67;;;8.77;;
36241;SDS011;22283;42.748;12.732;2024-02-16T21:01:20;30.53;;;13.47;;
36241;SDS011;22283;42.748;12.732;2024-02-16T21:06:21;20.17;;;11.07;;
36241;SDS011;22283;42.748;12.732;2024-02-16T21:11:21;17.37;;;9.50;;
36241;SDS011;22283;42.748;12.732;2024-02-16T21:16:21;14.97;;;8.37;;
36241;SDS011;22283;42.748;12.732;2024-02-16T21:21:22;18.93;;;9.43;;
36241;SDS011;22283;42.748;12.732;2024-02-16T21:26:25;19.10;;;10.48;;
36241;SDS011;22283;42.748;12.732;2024-02-16T21:31:26;11.48;;;6.47;;
36241;SDS011;22283;42.748;12.732;2024-02-16T21:36:26;15.43;;;6.77;;
36241;SDS011;22283;42.748;12.732;2024-02-16T21:41:27;13.23;;;7.97;;
36241;SDS011;22283;42.748;12.732;2024-02-16T21:46:32;11.82;;;6.20;;
36241;SDS011;22283;42.748;12.732;2024-02-16T21:51:34;14.23;;;7.72;;
36241;SDS011;22283;42.748;12.732;2024-02-16T21:56:35;9.55;;;5.75;;
36241;SDS011;22283;42.748;12.732;2024-02-16T22:01:36;9.73;;;5.17;;
36241;SDS011;22283;42.748;12.732;2024-02-16T22:06:37;11.37;;;5.53;;
36241;SDS011;22283;42.748;12.732;2024-02-16T22:11:37;13.37;;;7.17;;
36241;SDS011;22283;42.748;12.732;2024-02-16T22:16:38;25.17;;;14.10;;
36241;SDS011;22283;42.748;12.732;2024-02-16T22:21:39;14.00;;;8.18;;
36241;SDS011;22283;42.748;12.732;2024-02-16T22:26:39;17.63;;;7.63;;
36241;SDS011;22283;42.748;12.732;2024-02-16T22:31:41;18.15;;;7.20;;
36241;SDS011;22283;42.748;12.732;2024-02-16T22:36:42;16.00;;;7.55;;
36241;SDS011;22283;42.748;12.732;2024-02-16T22:41:43;17.13;;;6.30;;
36241;SDS011;22283;42.748;12.732;2024-02-16T22:46:44;12.73;;;5.90;;
36241;SDS011;22283;42.748;12.732;2024-02-16T22:51:45;12.57;;;5.63;;
36241;SDS011;22283;42.748;12.732;2024-02-16T22:56:45;11.67;;;6.40;;
36241;SDS011;22283;42.748;12.732;2024-02-16T23:01:46;16.90;;;5.73;;
36241;SDS011;22283;42.748;12.732;2024-02-16T23:06:46;10.93;;;3.90;;
36241;SDS011;22283;42.748;12.732;2024-02-16T23:11:47;8.73;;;4.50;;
36241;SDS011;22283;42.748;12.732;2024-02-16T23:16:47;7.57;;;4.40;;
36241;SDS011;22283;42.748;12.732;2024-02-16T23:21:48;12.30;;;4.80;;
36241;SDS011;22283;42.748;12.732;2024-02-16T23:26:48;9.47;;;4.70;;
36241;SDS011;22283;42.748;12.732;2024-02-16T23:31:49;10.13;;;4.63;;
36241;SDS011;22283;42.748;12.732;2024-02-16T23:36:50;10.87;;;5.70;;
36241;SDS011;22283;42.748;12.732;2024-02-16T23:41:50;10.43;;;4.77;;
36241;SDS011;22283;42.748;12.732;2024-02-16T23:46:51;7.50;;;4.23;;
36241;SDS011;22283;42.748;12.732;2024-02-16T23:51:53;7.97;;;4.03;;
36241;SDS011;22283;42.748;12.732;2024-02-16T23:56:53;8.63;;;4.07;;
